sensor_id;sensor_type;location;lat;lon;timestamp;P1;durP1;ratioP1;P2;durP2;ratioP2
53421;SDS011;39319;52.944;5.928;2022-09-20T00:00:21;11.68;;;2.30;;
53421;SDS011;39319;52.944;5.928;2022-09-20T00:02:51;11.80;;;1.80;;
53421;SDS011;39319;52.944;5.928;2022-09-20T00:05:17;9.77;;;1.63;;
53421;SDS011;39319;52.944;5.928;2022-09-20T00:07:46;12.85;;;1.85;;
53421;SDS011;39319;52.944;5.928;2022-09-20T00:10:17;10.10;;;1.80;;
53421;SDS011;39319;52.944;5.928;2022-09-20T00:12:50;16.58;;;1.95;;
53421;SDS011;39319;52.944;5.928;2022-09-20T00:15:19;10.20;;;1.60;;
53421;SDS011;39319;52.944;5.928;2022-09-20T00:17:51;9.20;;;1.35;;
53421;SDS011;39319;52.944;5.928;2022-09-20T00:20:24;10.50;;;1.60;;
53421;SDS011;39319;52.944;5.928;2022-09-20T00:22:49;11.20;;;1.70;;
53421;SDS011;39319;52.944;5.928;2022-09-20T00:25:16;10.63;;;1.60;;
53421;SDS011;39319;52.944;5.928;2022-09-20T00:27:47;9.80;;;1.50;;
53421;SDS011;39319;52.944;5.928;2022-09-20T00:30:18;9.65;;;1.55;;
53421;SDS011;39319;52.944;5.928;2022-09-20T00:32:43;9.87;;;1.57;;
53421;SDS011;39319;52.944;5.928;2022-09-20T00:35:09;9.45;;;1.67;;
53421;SDS011;39319;52.944;5.928;2022-09-20T00:37:39;9.35;;;1.58;;
53421;SDS011;39319;52.944;5.928;2022-09-20T00:40:07;10.95;;;1.63;;
53421;SDS011;39319;52.944;5.928;2022-09-20T00:42:36;11.27;;;1.60;;
53421;SDS011;39319;52.944;5.928;2022-09-20T00:45:22;11.53;;;1.90;;
53421;SDS011;39319;52.944;5.928;2022-09-20T00:50:39;9.15;;;1.80;;
53421;SDS011;39319;52.944;5.928;2022-09-20T00:53:18;10.75;;;1.60;;
53421;SDS011;39319;52.944;5.928;2022-09-20T00:56:00;11.20;;;1.60;;
53421;SDS011;39319;52.944;5.928;2022-09-20T00:58:32;9.30;;;1.53;;
53421;SDS011;39319;52.944;5.928;2022-09-20T01:01:05;10.95;;;1.75;;
53421;SDS011;39319;52.944;5.928;2022-09-20T01:03:32;10.10;;;1.50;;
53421;SDS011;39319;52.944;5.928;2022-09-20T01:06:01;9.20;;;1.70;;
53421;SDS011;39319;52.944;5.928;2022-09-20T01:08:31;10.15;;;1.60;;
53421;SDS011;39319;52.944;5.928;2022-09-20T01:11:02;11.10;;;1.73;;
53421;SDS011;39319;52.944;5.928;2022-09-20T01:13:34;8.82;;;1.50;;
53421;SDS011;39319;52.944;5.928;2022-09-20T01:16:00;10.90;;;1.80;;
53421;SDS011;39319;52.944;5.928;2022-09-20T01:18:27;7.78;;;1.20;;
53421;SDS011;39319;52.944;5.928;2022-09-20T01:20:56;7.82;;;1.55;;
53421;SDS011;39319;52.944;5.928;2022-09-20T01:32:10;9.68;;;1.67;;
53421;SDS011;39319;52.944;5.928;2022-09-20T01:34:53;12.43;;;1.70;;
53421;SDS011;39319;52.944;5.928;2022-09-20T01:37:27;10.68;;;1.77;;
53421;SDS011;39319;52.944;5.928;2022-09-20T01:40:20;8.65;;;1.30;;
53421;SDS011;39319;52.944;5.928;2022-09-20T01:42:50;10.33;;;1.40;;
53421;SDS011;39319;52.944;5.928;2022-09-20T01:45:31;7.63;;;1.40;;
53421;SDS011;39319;52.944;5.928;2022-09-20T01:56:52;6.93;;;1.33;;
53421;SDS011;39319;52.944;5.928;2022-09-20T02:12:55;9.60;;;1.38;;
53421;SDS011;39319;52.944;5.928;2022-09-20T02:26:47;9.32;;;1.35;;
53421;SDS011;39319;52.944;5.928;2022-09-20T02:32:22;7.97;;;1.13;;
53421;SDS011;39319;52.944;5.928;2022-09-20T02:35:07;7.95;;;1.27;;
53421;SDS011;39319;52.944;5.928;2022-09-20T02:38:08;7.70;;;1.20;;
53421;SDS011;39319;52.944;5.928;2022-09-20T02:40:49;8.98;;;1.20;;
53421;SDS011;39319;52.944;5.928;2022-09-20T02:43:39;8.57;;;1.20;;
53421;SDS011;39319;52.944;5.928;2022-09-20T02:46:33;7.10;;;1.10;;
53421;SDS011;39319;52.944;5.928;2022-09-20T03:00:41;8.85;;;1.20;;
53421;SDS011;39319;52.944;5.928;2022-09-20T03:03:25;9.80;;;1.40;;
53421;SDS011;39319;52.944;5.928;2022-09-20T03:06:13;6.32;;;1.13;;
53421;SDS011;39319;52.944;5.928;2022-09-20T03:15:09;7.78;;;1.27;;
53421;SDS011;39319;52.944;5.928;2022-09-20T03:18:05;7.15;;;1.00;;
53421;SDS011;39319;52.944;5.928;2022-09-20T03:40:13;7.20;;;1.33;;
53421;SDS011;39319;52.944;5.928;2022-09-20T03:54:52;6.78;;;1.10;;
53421;SDS011;39319;52.944;5.928;2022-09-20T03:57:53;7.85;;;1.50;;
53421;SDS011;39319;52.944;5.928;2022-09-20T04:00:22;7.20;;;1.10;;
53421;SDS011;39319;52.944;5.928;2022-09-20T04:12:01;7.50;;;1.10;;
53421;SDS011;39319;52.944;5.928;2022-09-20T04:17:56;6.00;;;1.30;;
53421;SDS011;39319;52.944;5.928;2022-09-20T04:20:49;6.57;;;1.30;;
53421;SDS011;39319;52.944;5.928;2022-09-20T04:26:05;7.88;;;1.20;;
53421;SDS011;39319;52.944;5.928;2022-09-20T04:31:37;9.30;;;1.40;;
53421;SDS011;39319;52.944;5.928;2022-09-20T04:34:19;6.10;;;1.30;;
53421;SDS011;39319;52.944;5.928;2022-09-20T05:00:06;8.48;;;1.15;;
53421;SDS011;39319;52.944;5.928;2022-09-20T05:09:02;8.83;;;1.40;;
53421;SDS011;39319;52.944;5.928;2022-09-20T05:14:21;7.70;;;1.30;;
53421;SDS011;39319;52.944;5.928;2022-09-20T05:26:02;7.57;;;1.50;;
53421;SDS011;39319;52.944;5.928;2022-09-20T05:29:22;8.75;;;1.17;;
53421;SDS011;39319;52.944;5.928;2022-09-20T05:31:50;8.18;;;1.15;;
53421;SDS011;39319;52.944;5.928;2022-09-20T05:34:37;13.73;;;1.75;;
53421;SDS011;39319;52.944;5.928;2022-09-20T05:40:32;6.27;;;1.07;;
53421;SDS011;39319;52.944;5.928;2022-09-20T05:43:38;8.65;;;1.05;;
53421;SDS011;39319;52.944;5.928;2022-09-20T05:46:31;8.83;;;1.20;;
53421;SDS011;39319;52.944;5.928;2022-09-20T05:49:11;9.68;;;1.50;;
53421;SDS011;39319;52.944;5.928;2022-09-20T05:57:27;9.65;;;1.70;;
53421;SDS011;39319;52.944;5.928;2022-09-20T06:00:09;8.48;;;1.48;;
53421;SDS011;39319;52.944;5.928;2022-09-20T06:02:49;8.48;;;1.42;;
53421;SDS011;39319;52.944;5.928;2022-09-20T06:17:20;10.23;;;1.40;;
53421;SDS011;39319;52.944;5.928;2022-09-20T06:22:51;8.02;;;1.38;;
53421;SDS011;39319;52.944;5.928;2022-09-20T06:25:22;8.45;;;1.58;;
53421;SDS011;39319;52.944;5.928;2022-09-20T06:28:07;8.43;;;1.45;;
53421;SDS011;39319;52.944;5.928;2022-09-20T06:30:58;9.13;;;1.75;;
53421;SDS011;39319;52.944;5.928;2022-09-20T06:33:25;7.95;;;1.55;;
53421;SDS011;39319;52.944;5.928;2022-09-20T06:36:00;9.68;;;1.85;;
53421;SDS011;39319;52.944;5.928;2022-09-20T06:41:41;7.07;;;1.40;;
53421;SDS011;39319;52.944;5.928;2022-09-20T06:44:10;13.13;;;1.90;;
53421;SDS011;39319;52.944;5.928;2022-09-20T06:46:36;9.03;;;1.60;;
53421;SDS011;39319;52.944;5.928;2022-09-20T06:49:08;9.75;;;2.13;;
53421;SDS011;39319;52.944;5.928;2022-09-20T06:51:35;9.27;;;1.60;;
53421;SDS011;39319;52.944;5.928;2022-09-20T06:54:03;7.50;;;1.42;;
53421;SDS011;39319;52.944;5.928;2022-09-20T06:56:30;6.82;;;1.10;;
53421;SDS011;39319;52.944;5.928;2022-09-20T06:59:06;9.30;;;1.90;;
53421;SDS011;39319;52.944;5.928;2022-09-20T07:01:34;7.40;;;1.35;;
53421;SDS011;39319;52.944;5.928;2022-09-20T07:04:01;6.50;;;1.40;;
53421;SDS011;39319;52.944;5.928;2022-09-20T07:06:27;10.10;;;1.93;;
53421;SDS011;39319;52.944;5.928;2022-09-20T07:08:55;11.38;;;1.58;;
53421;SDS011;39319;52.944;5.928;2022-09-20T07:11:21;8.10;;;1.23;;
53421;SDS011;39319;52.944;5.928;2022-09-20T07:13:54;9.00;;;1.65;;
53421;SDS011;39319;52.944;5.928;2022-09-20T07:16:26;9.38;;;1.48;;
53421;SDS011;39319;52.944;5.928;2022-09-20T07:18:57;7.77;;;1.50;;
53421;SDS011;39319;52.944;5.928;2022-09-20T07:21:23;10.40;;;1.40;;
53421;SDS011;39319;52.944;5.928;2022-09-20T07:23:49;9.17;;;1.40;;
53421;SDS011;39319;52.944;5.928;2022-09-20T07:26:17;8.95;;;1.60;;
53421;SDS011;39319;52.944;5.928;2022-09-20T07:28:43;7.63;;;1.30;;
53421;SDS011;39319;52.944;5.928;2022-09-20T07:31:09;12.03;;;1.87;;
53421;SDS011;39319;52.944;5.928;2022-09-20T07:33:35;7.70;;;1.50;;
53421;SDS011;39319;52.944;5.928;2022-09-20T07:36:06;11.13;;;1.73;;
53421;SDS011;39319;52.944;5.928;2022-09-20T07:38:33;8.32;;;1.52;;
53421;SDS011;39319;52.944;5.928;2022-09-20T07:41:04;9.60;;;1.63;;
53421;SDS011;39319;52.944;5.928;2022-09-20T07:43:31;10.07;;;1.50;;
53421;SDS011;39319;52.944;5.928;2022-09-20T07:46:00;9.52;;;1.58;;
53421;SDS011;39319;52.944;5.928;2022-09-20T07:48:30;8.20;;;1.55;;
53421;SDS011;39319;52.944;5.928;2022-09-20T07:51:03;10.70;;;1.55;;
53421;SDS011;39319;52.944;5.928;2022-09-20T07:53:37;8.68;;;1.60;;
53421;SDS011;39319;52.944;5.928;2022-09-20T07:56:14;10.02;;;1.40;;
53421;SDS011;39319;52.944;5.928;2022-09-20T07:58:40;8.52;;;1.42;;
53421;SDS011;39319;52.944;5.928;2022-09-20T08:01:08;10.95;;;2.35;;
53421;SDS011;39319;52.944;5.928;2022-09-20T08:03:36;8.80;;;1.70;;
53421;SDS011;39319;52.944;5.928;2022-09-20T08:08:33;9.57;;;1.40;;
53421;SDS011;39319;52.944;5.928;2022-09-20T08:11:01;9.43;;;1.65;;
53421;SDS011;39319;52.944;5.928;2022-09-20T08:13:29;9.80;;;1.42;;
53421;SDS011;39319;52.944;5.928;2022-09-20T08:15:59;9.80;;;1.60;;
53421;SDS011;39319;52.944;5.928;2022-09-20T08:18:27;11.98;;;1.60;;
53421;SDS011;39319;52.944;5.928;2022-09-20T08:20:52;9.10;;;1.37;;
53421;SDS011;39319;52.944;5.928;2022-09-20T08:23:19;10.00;;;1.33;;
53421;SDS011;39319;52.944;5.928;2022-09-20T08:25:45;11.90;;;2.03;;
53421;SDS011;39319;52.944;5.928;2022-09-20T08:28:12;9.60;;;1.75;;
53421;SDS011;39319;52.944;5.928;2022-09-20T08:30:38;9.50;;;1.50;;
53421;SDS011;39319;52.944;5.928;2022-09-20T08:33:04;9.75;;;1.67;;
53421;SDS011;39319;52.944;5.928;2022-09-20T08:35:33;12.27;;;1.63;;
53421;SDS011;39319;52.944;5.928;2022-09-20T08:37:59;8.73;;;1.45;;
53421;SDS011;39319;52.944;5.928;2022-09-20T08:40:25;9.48;;;1.70;;
53421;SDS011;39319;52.944;5.928;2022-09-20T08:42:54;9.10;;;1.40;;
53421;SDS011;39319;52.944;5.928;2022-09-20T08:45:21;9.57;;;1.50;;
53421;SDS011;39319;52.944;5.928;2022-09-20T08:47:59;9.60;;;1.50;;
53421;SDS011;39319;52.944;5.928;2022-09-20T08:50:29;11.35;;;1.52;;
53421;SDS011;39319;52.944;5.928;2022-09-20T08:52:56;9.53;;;1.53;;
53421;SDS011;39319;52.944;5.928;2022-09-20T08:55:29;7.68;;;1.50;;
53421;SDS011;39319;52.944;5.928;2022-09-20T08:57:56;10.60;;;1.50;;
53421;SDS011;39319;52.944;5.928;2022-09-20T09:00:32;11.60;;;1.40;;
53421;SDS011;39319;52.944;5.928;2022-09-20T09:03:03;10.60;;;1.70;;
53421;SDS011;39319;52.944;5.928;2022-09-20T09:05:42;7.60;;;1.30;;
53421;SDS011;39319;52.944;5.928;2022-09-20T09:08:14;5.53;;;1.37;;
53421;SDS011;39319;52.944;5.928;2022-09-20T09:16:00;7.13;;;1.30;;
53421;SDS011;39319;52.944;5.928;2022-09-20T09:18:38;9.23;;;1.55;;
53421;SDS011;39319;52.944;5.928;2022-09-20T09:21:06;9.38;;;1.50;;
53421;SDS011;39319;52.944;5.928;2022-09-20T09:23:41;8.35;;;1.40;;
53421;SDS011;39319;52.944;5.928;2022-09-20T09:26:15;7.50;;;1.25;;
53421;SDS011;39319;52.944;5.928;2022-09-20T09:28:44;8.48;;;1.75;;
53421;SDS011;39319;52.944;5.928;2022-09-20T09:31:20;6.85;;;1.20;;
53421;SDS011;39319;52.944;5.928;2022-09-20T09:33:50;9.52;;;1.30;;
53421;SDS011;39319;52.944;5.928;2022-09-20T09:36:19;7.93;;;1.30;;
53421;SDS011;39319;52.944;5.928;2022-09-20T09:38:50;8.63;;;1.50;;
53421;SDS011;39319;52.944;5.928;2022-09-20T09:41:43;9.55;;;1.40;;
53421;SDS011;39319;52.944;5.928;2022-09-20T09:44:23;9.37;;;1.17;;
53421;SDS011;39319;52.944;5.928;2022-09-20T09:46:52;6.65;;;1.10;;
53421;SDS011;39319;52.944;5.928;2022-09-20T09:49:20;8.95;;;1.45;;
53421;SDS011;39319;52.944;5.928;2022-09-20T09:54:40;11.73;;;1.85;;
53421;SDS011;39319;52.944;5.928;2022-09-20T10:05:02;9.43;;;1.75;;
53421;SDS011;39319;52.944;5.928;2022-09-20T10:07:43;9.00;;;1.57;;
53421;SDS011;39319;52.944;5.928;2022-09-20T10:12:56;8.50;;;1.23;;
53421;SDS011;39319;52.944;5.928;2022-09-20T10:15:43;8.38;;;1.25;;
53421;SDS011;39319;52.944;5.928;2022-09-20T10:18:40;8.67;;;1.40;;
53421;SDS011;39319;52.944;5.928;2022-09-20T10:23:51;8.07;;;1.40;;
53421;SDS011;39319;52.944;5.928;2022-09-20T10:26:41;7.40;;;1.10;;
53421;SDS011;39319;52.944;5.928;2022-09-20T10:48:31;6.57;;;1.08;;
53421;SDS011;39319;52.944;5.928;2022-09-20T10:53:59;7.68;;;1.02;;
53421;SDS011;39319;52.944;5.928;2022-09-20T10:56:44;7.85;;;1.10;;
53421;SDS011;39319;52.944;5.928;2022-09-20T11:07:10;8.18;;;1.10;;
53421;SDS011;39319;52.944;5.928;2022-09-20T11:09:51;6.95;;;1.10;;
53421;SDS011;39319;52.944;5.928;2022-09-20T11:12:40;7.63;;;1.42;;
53421;SDS011;39319;52.944;5.928;2022-09-20T11:15:20;6.35;;;1.10;;
53421;SDS011;39319;52.944;5.928;2022-09-20T11:20:35;7.63;;;1.17;;
53421;SDS011;39319;52.944;5.928;2022-09-20T11:23:50;6.53;;;1.37;;
53421;SDS011;39319;52.944;5.928;2022-09-20T11:26:23;7.15;;;1.48;;
53421;SDS011;39319;52.944;5.928;2022-09-20T11:29:07;5.85;;;1.00;;
53421;SDS011;39319;52.944;5.928;2022-09-20T11:31:52;5.30;;;0.85;;
53421;SDS011;39319;52.944;5.928;2022-09-20T11:34:24;5.47;;;0.80;;
53421;SDS011;39319;52.944;5.928;2022-09-20T11:37:04;5.30;;;0.90;;
53421;SDS011;39319;52.944;5.928;2022-09-20T11:39:38;8.52;;;1.35;;
53421;SDS011;39319;52.944;5.928;2022-09-20T11:42:23;8.13;;;1.00;;
53421;SDS011;39319;52.944;5.928;2022-09-20T11:44:55;6.80;;;1.00;;
53421;SDS011;39319;52.944;5.928;2022-09-20T11:55:26;8.02;;;1.08;;
53421;SDS011;39319;52.944;5.928;2022-09-20T11:58:04;8.52;;;1.20;;
53421;SDS011;39319;52.944;5.928;2022-09-20T12:00:33;7.88;;;1.00;;
53421;SDS011;39319;52.944;5.928;2022-09-20T12:03:03;6.45;;;0.75;;
53421;SDS011;39319;52.944;5.928;2022-09-20T12:08:06;6.22;;;0.95;;
53421;SDS011;39319;52.944;5.928;2022-09-20T12:10:42;8.40;;;1.20;;
53421;SDS011;39319;52.944;5.928;2022-09-20T12:13:37;6.60;;;1.00;;
53421;SDS011;39319;52.944;5.928;2022-09-20T12:16:06;7.65;;;1.48;;
53421;SDS011;39319;52.944;5.928;2022-09-20T12:21:20;8.55;;;1.23;;
53421;SDS011;39319;52.944;5.928;2022-09-20T12:28:51;5.65;;;1.08;;
53421;SDS011;39319;52.944;5.928;2022-09-20T12:39:19;5.07;;;1.00;;
53421;SDS011;39319;52.944;5.928;2022-09-20T12:47:32;7.75;;;1.10;;
53421;SDS011;39319;52.944;5.928;2022-09-20T12:50:01;8.18;;;1.20;;
53421;SDS011;39319;52.944;5.928;2022-09-20T12:52:55;7.40;;;1.20;;
53421;SDS011;39319;52.944;5.928;2022-09-20T12:58:02;6.55;;;1.13;;
53421;SDS011;39319;52.944;5.928;2022-09-20T13:00:32;6.68;;;1.08;;
53421;SDS011;39319;52.944;5.928;2022-09-20T13:11:33;7.30;;;1.15;;
53421;SDS011;39319;52.944;5.928;2022-09-20T13:14:28;7.32;;;1.20;;
53421;SDS011;39319;52.944;5.928;2022-09-20T13:17:01;6.38;;;1.35;;
53421;SDS011;39319;52.944;5.928;2022-09-20T13:19:41;6.38;;;1.05;;
53421;SDS011;39319;52.944;5.928;2022-09-20T13:22:24;6.00;;;0.93;;
53421;SDS011;39319;52.944;5.928;2022-09-20T13:24:56;5.85;;;1.17;;
53421;SDS011;39319;52.944;5.928;2022-09-20T13:27:26;6.43;;;0.80;;
53421;SDS011;39319;52.944;5.928;2022-09-20T13:30:07;6.07;;;0.90;;
53421;SDS011;39319;52.944;5.928;2022-09-20T13:32:48;7.05;;;1.02;;
53421;SDS011;39319;52.944;5.928;2022-09-20T13:35:19;6.63;;;1.25;;
53421;SDS011;39319;52.944;5.928;2022-09-20T13:38:05;7.30;;;1.23;;
53421;SDS011;39319;52.944;5.928;2022-09-20T13:40:34;6.40;;;1.00;;
53421;SDS011;39319;52.944;5.928;2022-09-20T13:46:05;7.13;;;1.13;;
53421;SDS011;39319;52.944;5.928;2022-09-20T13:48:34;7.07;;;1.08;;
53421;SDS011;39319;52.944;5.928;2022-09-20T13:50:59;8.65;;;1.17;;
53421;SDS011;39319;52.944;5.928;2022-09-20T13:53:26;8.32;;;1.20;;
53421;SDS011;39319;52.944;5.928;2022-09-20T13:55:55;7.25;;;1.10;;
53421;SDS011;39319;52.944;5.928;2022-09-20T14:00:50;6.83;;;1.10;;
53421;SDS011;39319;52.944;5.928;2022-09-20T14:03:22;6.72;;;0.80;;
53421;SDS011;39319;52.944;5.928;2022-09-20T14:05:50;5.57;;;0.75;;
53421;SDS011;39319;52.944;5.928;2022-09-20T14:11:14;5.25;;;0.90;;
53421;SDS011;39319;52.944;5.928;2022-09-20T14:13:43;4.50;;;0.80;;
53421;SDS011;39319;52.944;5.928;2022-09-20T14:16:12;5.00;;;0.90;;
53421;SDS011;39319;52.944;5.928;2022-09-20T14:18:39;5.63;;;0.90;;
53421;SDS011;39319;52.944;5.928;2022-09-20T14:21:06;6.03;;;0.80;;
53421;SDS011;39319;52.944;5.928;2022-09-20T14:23:47;5.63;;;0.80;;
53421;SDS011;39319;52.944;5.928;2022-09-20T14:28:41;7.37;;;1.00;;
53421;SDS011;39319;52.944;5.928;2022-09-20T14:31:11;7.55;;;1.30;;
53421;SDS011;39319;52.944;5.928;2022-09-20T14:33:41;5.33;;;0.80;;
53421;SDS011;39319;52.944;5.928;2022-09-20T14:36:13;5.72;;;1.10;;
53421;SDS011;39319;52.944;5.928;2022-09-20T14:38:43;6.70;;;0.93;;
53421;SDS011;39319;52.944;5.928;2022-09-20T14:41:12;6.00;;;0.90;;
53421;SDS011;39319;52.944;5.928;2022-09-20T14:43:38;6.55;;;0.80;;
53421;SDS011;39319;52.944;5.928;2022-09-20T14:46:15;5.57;;;0.90;;
53421;SDS011;39319;52.944;5.928;2022-09-20T14:48:41;7.43;;;0.87;;
53421;SDS011;39319;52.944;5.928;2022-09-20T14:53:46;8.60;;;1.10;;
53421;SDS011;39319;52.944;5.928;2022-09-20T15:01:43;6.97;;;1.20;;
53421;SDS011;39319;52.944;5.928;2022-09-20T15:04:20;6.82;;;1.00;;
53421;SDS011;39319;52.944;5.928;2022-09-20T15:06:48;8.02;;;1.13;;
53421;SDS011;39319;52.944;5.928;2022-09-20T15:09:14;6.63;;;1.20;;
53421;SDS011;39319;52.944;5.928;2022-09-20T15:11:42;7.00;;;1.15;;
53421;SDS011;39319;52.944;5.928;2022-09-20T15:14:08;7.25;;;1.23;;
53421;SDS011;39319;52.944;5.928;2022-09-20T15:16:34;7.00;;;1.00;;
53421;SDS011;39319;52.944;5.928;2022-09-20T15:19:01;7.38;;;1.08;;
53421;SDS011;39319;52.944;5.928;2022-09-20T15:21:26;7.55;;;1.05;;
53421;SDS011;39319;52.944;5.928;2022-09-20T15:23:53;11.15;;;1.40;;
53421;SDS011;39319;52.944;5.928;2022-09-20T15:26:19;7.60;;;1.10;;
53421;SDS011;39319;52.944;5.928;2022-09-20T15:28:45;9.30;;;1.40;;
53421;SDS011;39319;52.944;5.928;2022-09-20T15:31:12;8.55;;;1.25;;
53421;SDS011;39319;52.944;5.928;2022-09-20T15:33:39;6.40;;;1.00;;
53421;SDS011;39319;52.944;5.928;2022-09-20T15:36:05;7.45;;;1.10;;
53421;SDS011;39319;52.944;5.928;2022-09-20T15:38:32;8.35;;;1.35;;
53421;SDS011;39319;52.944;5.928;2022-09-20T15:41:01;8.48;;;1.23;;
53421;SDS011;39319;52.944;5.928;2022-09-20T15:43:31;8.75;;;1.42;;
53421;SDS011;39319;52.944;5.928;2022-09-20T15:46:16;7.70;;;1.20;;
53421;SDS011;39319;52.944;5.928;2022-09-20T15:48:43;7.70;;;1.27;;
53421;SDS011;39319;52.944;5.928;2022-09-20T15:51:10;7.80;;;1.30;;
53421;SDS011;39319;52.944;5.928;2022-09-20T15:53:39;9.80;;;1.38;;
53421;SDS011;39319;52.944;5.928;2022-09-20T15:56:16;7.20;;;1.30;;
53421;SDS011;39319;52.944;5.928;2022-09-20T15:58:43;7.88;;;1.08;;
53421;SDS011;39319;52.944;5.928;2022-09-20T16:01:12;5.82;;;1.00;;
53421;SDS011;39319;52.944;5.928;2022-09-20T16:03:40;7.70;;;1.20;;
53421;SDS011;39319;52.944;5.928;2022-09-20T16:06:08;6.97;;;1.20;;
53421;SDS011;39319;52.944;5.928;2022-09-20T16:08:40;7.97;;;1.10;;
53421;SDS011;39319;52.944;5.928;2022-09-20T16:11:07;6.93;;;1.13;;
53421;SDS011;39319;52.944;5.928;2022-09-20T16:13:36;7.82;;;1.30;;
53421;SDS011;39319;52.944;5.928;2022-09-20T16:16:03;7.32;;;1.33;;
53421;SDS011;39319;52.944;5.928;2022-09-20T16:18:29;10.65;;;1.40;;
53421;SDS011;39319;52.944;5.928;2022-09-20T16:21:15;7.40;;;1.02;;
53421;SDS011;39319;52.944;5.928;2022-09-20T16:23:46;9.02;;;1.55;;
53421;SDS011;39319;52.944;5.928;2022-09-20T16:26:13;7.93;;;1.27;;
53421;SDS011;39319;52.944;5.928;2022-09-20T16:28:39;6.40;;;1.10;;
53421;SDS011;39319;52.944;5.928;2022-09-20T16:34:03;6.78;;;1.10;;
53421;SDS011;39319;52.944;5.928;2022-09-20T16:36:37;9.65;;;1.30;;
53421;SDS011;39319;52.944;5.928;2022-09-20T16:39:05;8.43;;;1.40;;
53421;SDS011;39319;52.944;5.928;2022-09-20T16:41:31;5.80;;;0.98;;
53421;SDS011;39319;52.944;5.928;2022-09-20T16:44:00;8.82;;;1.23;;
53421;SDS011;39319;52.944;5.928;2022-09-20T16:46:26;8.85;;;1.42;;
53421;SDS011;39319;52.944;5.928;2022-09-20T16:48:55;9.18;;;1.38;;
53421;SDS011;39319;52.944;5.928;2022-09-20T16:51:24;7.00;;;1.42;;
53421;SDS011;39319;52.944;5.928;2022-09-20T16:53:55;7.57;;;1.17;;
53421;SDS011;39319;52.944;5.928;2022-09-20T16:56:24;7.68;;;1.20;;
53421;SDS011;39319;52.944;5.928;2022-09-20T16:58:51;7.28;;;1.17;;
53421;SDS011;39319;52.944;5.928;2022-09-20T17:01:17;9.13;;;1.30;;
53421;SDS011;39319;52.944;5.928;2022-09-20T17:03:44;5.70;;;1.13;;
53421;SDS011;39319;52.944;5.928;2022-09-20T17:06:11;6.43;;;1.02;;
53421;SDS011;39319;52.944;5.928;2022-09-20T17:08:38;7.53;;;1.08;;
53421;SDS011;39319;52.944;5.928;2022-09-20T17:11:05;7.40;;;1.23;;
53421;SDS011;39319;52.944;5.928;2022-09-20T17:13:33;5.28;;;0.90;;
53421;SDS011;39319;52.944;5.928;2022-09-20T17:16:00;5.97;;;0.93;;
53421;SDS011;39319;52.944;5.928;2022-09-20T17:18:30;5.97;;;1.10;;
53421;SDS011;39319;52.944;5.928;2022-09-20T17:21:02;5.65;;;1.20;;
53421;SDS011;39319;52.944;5.928;2022-09-20T17:23:31;7.00;;;1.40;;
53421;SDS011;39319;52.944;5.928;2022-09-20T17:26:04;7.43;;;1.27;;
53421;SDS011;39319;52.944;5.928;2022-09-20T17:28:40;11.23;;;1.65;;
53421;SDS011;39319;52.944;5.928;2022-09-20T17:31:09;7.53;;;1.40;;
53421;SDS011;39319;52.944;5.928;2022-09-20T17:33:39;6.93;;;1.30;;
53421;SDS011;39319;52.944;5.928;2022-09-20T17:36:06;7.00;;;1.10;;
53421;SDS011;39319;52.944;5.928;2022-09-20T17:38:34;7.10;;;1.10;;
53421;SDS011;39319;52.944;5.928;2022-09-20T17:41:10;8.80;;;1.38;;
53421;SDS011;39319;52.944;5.928;2022-09-20T17:43:38;7.00;;;1.15;;
53421;SDS011;39319;52.944;5.928;2022-09-20T17:48:54;7.93;;;1.40;;
53421;SDS011;39319;52.944;5.928;2022-09-20T17:51:24;9.05;;;1.65;;
53421;SDS011;39319;52.944;5.928;2022-09-20T17:53:52;9.07;;;1.30;;
53421;SDS011;39319;52.944;5.928;2022-09-20T17:56:20;7.85;;;1.35;;
53421;SDS011;39319;52.944;5.928;2022-09-20T17:58:48;7.17;;;1.10;;
53421;SDS011;39319;52.944;5.928;2022-09-20T18:01:16;7.68;;;1.10;;
53421;SDS011;39319;52.944;5.928;2022-09-20T18:03:44;6.43;;;1.10;;
53421;SDS011;39319;52.944;5.928;2022-09-20T18:08:54;8.85;;;1.20;;
53421;SDS011;39319;52.944;5.928;2022-09-20T18:11:29;8.80;;;1.27;;
53421;SDS011;39319;52.944;5.928;2022-09-20T18:14:04;6.70;;;1.10;;
53421;SDS011;39319;52.944;5.928;2022-09-20T18:16:31;7.97;;;1.33;;
53421;SDS011;39319;52.944;5.928;2022-09-20T18:19:01;7.25;;;1.05;;
53421;SDS011;39319;52.944;5.928;2022-09-20T18:21:28;6.32;;;1.17;;
53421;SDS011;39319;52.944;5.928;2022-09-20T18:23:58;7.45;;;1.65;;
53421;SDS011;39319;52.944;5.928;2022-09-20T18:26:26;11.13;;;1.67;;
53421;SDS011;39319;52.944;5.928;2022-09-20T18:29:01;7.60;;;1.55;;
53421;SDS011;39319;52.944;5.928;2022-09-20T18:31:42;7.93;;;1.80;;
53421;SDS011;39319;52.944;5.928;2022-09-20T18:34:11;7.00;;;1.35;;
53421;SDS011;39319;52.944;5.928;2022-09-20T18:36:45;7.10;;;1.70;;
53421;SDS011;39319;52.944;5.928;2022-09-20T18:39:16;6.05;;;1.20;;
53421;SDS011;39319;52.944;5.928;2022-09-20T18:41:53;6.50;;;1.55;;
53421;SDS011;39319;52.944;5.928;2022-09-20T18:44:20;7.13;;;1.30;;
53421;SDS011;39319;52.944;5.928;2022-09-20T18:46:47;9.18;;;1.60;;
53421;SDS011;39319;52.944;5.928;2022-09-20T18:49:17;7.77;;;1.40;;
53421;SDS011;39319;52.944;5.928;2022-09-20T18:51:45;7.25;;;1.55;;
53421;SDS011;39319;52.944;5.928;2022-09-20T18:54:12;8.60;;;1.58;;
53421;SDS011;39319;52.944;5.928;2022-09-20T18:56:40;8.80;;;1.92;;
53421;SDS011;39319;52.944;5.928;2022-09-20T18:59:11;8.93;;;1.77;;
53421;SDS011;39319;52.944;5.928;2022-09-20T19:12:36;8.75;;;1.70;;
53421;SDS011;39319;52.944;5.928;2022-09-20T19:20:21;8.60;;;1.80;;
53421;SDS011;39319;52.944;5.928;2022-09-20T19:26:37;7.47;;;1.48;;
53421;SDS011;39319;52.944;5.928;2022-09-20T19:28:48;6.50;;;1.70;;
53421;SDS011;39319;52.944;5.928;2022-09-20T19:31:29;7.40;;;1.80;;
53421;SDS011;39319;52.944;5.928;2022-09-20T19:33:57;8.80;;;1.95;;
53421;SDS011;39319;52.944;5.928;2022-09-20T19:48:05;9.07;;;2.28;;
53421;SDS011;39319;52.944;5.928;2022-09-20T19:50:44;7.32;;;2.00;;
53421;SDS011;39319;52.944;5.928;2022-09-20T19:53:14;8.23;;;2.40;;
53421;SDS011;39319;52.944;5.928;2022-09-20T19:55:45;8.80;;;2.50;;
53421;SDS011;39319;52.944;5.928;2022-09-20T19:58:12;7.93;;;2.20;;
53421;SDS011;39319;52.944;5.928;2022-09-20T20:00:41;10.57;;;2.60;;
53421;SDS011;39319;52.944;5.928;2022-09-20T20:03:10;15.18;;;6.15;;
53421;SDS011;39319;52.944;5.928;2022-09-20T20:05:36;12.32;;;5.10;;
53421;SDS011;39319;52.944;5.928;2022-09-20T20:08:16;13.60;;;4.75;;
53421;SDS011;39319;52.944;5.928;2022-09-20T20:13:43;12.75;;;5.00;;
53421;SDS011;39319;52.944;5.928;2022-09-20T20:16:31;13.23;;;5.03;;
53421;SDS011;39319;52.944;5.928;2022-09-20T20:19:24;13.00;;;5.75;;
53421;SDS011;39319;52.944;5.928;2022-09-20T20:24:50;11.70;;;5.03;;
53421;SDS011;39319;52.944;5.928;2022-09-20T20:27:18;11.52;;;5.07;;
53421;SDS011;39319;52.944;5.928;2022-09-20T20:29:44;15.60;;;7.97;;
53421;SDS011;39319;52.944;5.928;2022-09-20T20:32:10;19.33;;;9.73;;
53421;SDS011;39319;52.944;5.928;2022-09-20T20:34:39;22.20;;;11.60;;
53421;SDS011;39319;52.944;5.928;2022-09-20T20:37:06;35.03;;;20.00;;
53421;SDS011;39319;52.944;5.928;2022-09-20T20:39:32;19.35;;;10.55;;
53421;SDS011;39319;52.944;5.928;2022-09-20T20:41:58;12.40;;;6.20;;
53421;SDS011;39319;52.944;5.928;2022-09-20T20:44:28;10.15;;;4.05;;
53421;SDS011;39319;52.944;5.928;2022-09-20T20:46:54;9.45;;;4.05;;
53421;SDS011;39319;52.944;5.928;2022-09-20T20:49:21;11.00;;;4.13;;
53421;SDS011;39319;52.944;5.928;2022-09-20T20:51:47;14.83;;;5.27;;
53421;SDS011;39319;52.944;5.928;2022-09-20T20:54:13;14.50;;;5.53;;
53421;SDS011;39319;52.944;5.928;2022-09-20T20:56:39;14.30;;;5.03;;
53421;SDS011;39319;52.944;5.928;2022-09-20T20:59:05;12.57;;;4.90;;
53421;SDS011;39319;52.944;5.928;2022-09-20T21:01:31;14.13;;;4.85;;
53421;SDS011;39319;52.944;5.928;2022-09-20T21:03:58;14.52;;;4.82;;